Time;durP1;ratioP1;P1;durP2;ratioP2;P2;SDS_P1;SDS_P2;PMS_P1;PMS_P2;Temp;Humidity;BMP_temperature;BMP_pressure;BME280_temperature;BME280_humidity;BME280_pressure;Samples;Min_cycle;Max_cycle;Signal;HPM_P1;HPM_P2
2022/03/23 00:01:54;;;;;;;1.38;1.17;;;22.30;31.00;;;;;;6314937;27;20058;-45
2022/03/23 00:04:56;;;;;;;1.48;1.20;;;22.30;31.00;;;;;;6313961;27;20039;-43
2022/03/23 00:07:58;;;;;;;2.03;1.30;;;22.20;30.90;;;;;;6312335;27;20202;-44
2022/03/23 00:11:00;;;;;;;1.33;1.05;;;22.20;30.90;;;;;;6312296;27;20031;-43
2022/03/23 00:14:01;;;;;;;1.73;1.33;;;22.30;30.90;;;;;;6313894;27;20089;-44
2022/03/23 00:17:03;;;;;;;1.40;1.25;;;22.20;30.90;;;;;;6312553;27;20039;-44
2022/03/23 00:20:06;;;;;;;1.73;1.25;;;22.30;30.90;;;;;;6315336;27;20113;-44
2022/03/23 00:23:09;;;;;;;1.95;1.40;;;22.30;31.00;;;;;;6294806;27;20058;-44
2022/03/23 00:26:12;;;;;;;1.73;1.30;;;22.20;30.90;;;;;;6310407;27;20930;-43
2022/03/23 00:29:14;;;;;;;1.50;1.20;;;22.10;30.80;;;;;;6309962;27;20163;-44
2022/03/23 00:32:15;;;;;;;1.30;1.10;;;22.20;30.80;;;;;;6317790;27;20985;-44
2022/03/23 00:35:18;;;;;;;1.40;1.30;;;22.20;30.80;;;;;;6310355;27;20956;-44
2022/03/23 00:38:22;;;;;;;1.35;1.15;;;22.20;31.50;;;;;;6312769;27;20039;-43
2022/03/23 00:41:24;;;;;;;1.42;1.30;;;22.20;30.80;;;;;;6302729;27;20043;-44
2022/03/23 00:44:25;;;;;;;1.48;1.20;;;22.20;30.90;;;;;;6309683;27;20042;-44
2022/03/23 00:47:27;;;;;;;1.38;1.27;;;22.20;30.90;;;;;;6312398;27;20146;-43
2022/03/23 00:50:30;;;;;;;1.48;1.30;;;22.10;30.80;;;;;;6309728;27;20150;-45
2022/03/23 00:53:31;;;;;;;1.25;1.15;;;22.20;30.90;;;;;;6312738;27;20039;-43
2022/03/23 00:56:33;;;;;;;1.30;1.20;;;22.10;30.90;;;;;;6314047;27;20034;-43
2022/03/23 00:59:34;;;;;;;;;;;22.10;30.90;;;;;;6310540;27;20160;-43
2022/03/23 01:02:36;;;;;;;1.30;1.10;;;22.10;30.90;;;;;;6313184;27;19927;-45
2022/03/23 01:05:38;;;;;;;1.30;0.98;;;22.00;30.80;;;;;;6317525;27;20833;-45
2022/03/23 01:08:40;;;;;;;1.52;0.98;;;22.10;30.90;;;;;;6317311;27;20038;-44
2022/03/23 01:11:41;;;;;;;;;;;22.10;30.90;;;;;;6310022;27;20486;-43
2022/03/23 01:14:43;;;;;;;1.13;1.02;;;22.10;30.90;;;;;;6315734;27;20046;-43
2022/03/23 01:17:45;;;;;;;1.30;1.10;;;22.10;30.90;;;;;;6317349;27;20082;-43
2022/03/23 01:20:47;;;;;;;1.10;1.00;;;22.10;31.00;;;;;;6316026;27;20042;-43
2022/03/23 01:23:50;;;;;;;1.30;1.20;;;22.10;31.00;;;;;;6315825;27;20909;-45
2022/03/23 01:26:51;;;;;;;1.30;1.20;;;22.00;31.00;;;;;;6315020;27;20106;-43
2022/03/23 01:29:53;;;;;;;1.40;1.23;;;22.10;31.00;;;;;;6316108;27;22053;-45
2022/03/23 01:32:55;;;;;;;1.33;1.23;;;22.10;31.00;;;;;;6313782;27;20154;-43
2022/03/23 01:35:57;;;;;;;1.42;1.33;;;22.10;31.10;;;;;;6314079;27;20072;-43
2022/03/23 01:38:59;;;;;;;1.63;1.20;;;22.00;31.10;;;;;;6304547;27;20046;-43
2022/03/23 01:42:01;;;;;;;1.38;1.27;;;22.00;31.10;;;;;;6312106;27;20053;-46
2022/03/23 01:45:04;;;;;;;1.40;1.20;;;22.00;31.10;;;;;;6293219;27;20978;-45
2022/03/23 01:48:05;;;;;;;1.60;1.50;;;22.00;31.20;;;;;;6316092;27;20066;-45
2022/03/23 01:51:07;;;;;;;1.15;1.05;;;22.00;31.20;;;;;;6314803;27;20890;-44
2022/03/23 01:54:11;;;;;;;1.40;1.30;;;22.00;31.30;;;;;;6319366;27;20107;-46
2022/03/23 01:57:13;;;;;;;;;;;22.10;31.30;;;;;;6307458;27;21090;-44
2022/03/23 02:00:17;;;;;;;1.40;1.30;;;22.00;31.30;;;;;;6320006;27;19919;-44
2022/03/23 02:03:22;;;;;;;1.63;1.30;;;21.90;31.30;;;;;;6319380;27;21102;-44
2022/03/23 02:06:24;;;;;;;1.35;1.25;;;21.80;31.30;;;;;;6311565;27;20043;-44
2022/03/23 02:09:27;;;;;;;1.30;1.00;;;21.90;31.40;;;;;;6317560;27;20856;-43
2022/03/23 02:12:31;;;;;;;1.33;1.20;;;22.00;31.50;;;;;;6315876;27;20031;-43
2022/03/23 02:15:32;;;;;;;1.50;1.40;;;21.80;31.40;;;;;;6317521;27;20039;-43
2022/03/23 02:18:34;;;;;;;1.35;1.25;;;21.90;31.40;;;;;;6314528;27;21347;-43
2022/03/23 02:21:36;;;;;;;;;;;21.90;31.50;;;;;;6316297;27;20359;-44
2022/03/23 02:24:38;;;;;;;1.30;1.20;;;21.90;31.50;;;;;;6318255;27;20264;-42
2022/03/23 02:27:40;;;;;;;1.65;1.30;;;21.90;31.60;;;;;;6318899;27;20081;-44
2022/03/23 02:30:42;;;;;;;1.23;1.13;;;21.80;31.50;;;;;;6316146;27;20074;-43
2022/03/23 02:33:44;;;;;;;1.23;1.10;;;21.90;31.60;;;;;;6316010;27;20043;-43
2022/03/23 02:36:45;;;;;;;;;;;21.80;31.50;;;;;;6323134;27;20153;-43
2022/03/23 02:39:47;;;;;;;1.13;0.95;;;21.80;31.60;;;;;;6321303;27;19949;-44
2022/03/23 02:42:49;;;;;;;1.27;1.17;;;21.80;31.60;;;;;;6314331;27;20039;-43
2022/03/23 02:45:51;;;;;;;1.20;1.10;;;21.80;31.60;;;;;;6315650;27;20070;-43
2022/03/23 02:48:52;;;;;;;1.50;1.08;;;21.80;31.60;;;;;;6320081;27;20145;-45
2022/03/23 02:51:53;;;;;;;;;;;21.80;31.70;;;;;;6299287;27;20121;-44
2022/03/23 03:04:52;;;;;;;;;;;21.60;31.60;;;;;;6301938;27;20039;-44
2022/03/23 03:11:10;;;;;;;1.65;1.15;;;21.70;31.80;;;;;;6316640;27;20039;-47
2022/03/23 03:14:12;;;;;;;1.45;1.30;;;21.70;31.80;;;;;;6318540;27;20067;-44
2022/03/23 03:17:14;;;;;;;1.60;1.30;;;21.60;31.80;;;;;;6290078;27;20030;-43
2022/03/23 03:20:16;;;;;;;1.30;1.20;;;21.70;31.90;;;;;;6319729;27;21016;-44
2022/03/23 03:23:17;;;;;;;1.30;1.20;;;21.70;31.80;;;;;;6282422;27;20148;-44
2022/03/23 03:26:20;;;;;;;1.40;1.17;;;21.70;31.80;;;;;;6319688;27;21117;-43
2022/03/23 03:29:23;;;;;;;1.90;1.00;;;21.70;31.90;;;;;;6321459;27;20917;-44
2022/03/23 03:32:24;;;;;;;1.20;1.10;;;21.70;32.50;;;;;;6315465;27;21037;-46
2022/03/23 03:35:26;;;;;;;1.50;1.40;;;21.50;31.80;;;;;;6317018;27;20147;-43
2022/03/23 03:38:28;;;;;;;1.70;1.38;;;21.70;31.90;;;;;;6316851;27;20042;-45
2022/03/23 03:41:31;;;;;;;1.85;1.52;;;21.50;31.80;;;;;;6300551;27;20104;-45
2022/03/23 03:44:33;;;;;;;1.20;1.10;;;21.70;31.90;;;;;;6315383;27;21051;-44
2022/03/23 03:47:34;;;;;;;1.52;1.42;;;21.60;31.90;;;;;;6323472;27;20157;-43
2022/03/23 03:50:36;;;;;;;;;;;21.70;31.90;;;;;;6324178;27;21065;-43
2022/03/23 03:53:37;;;;;;;1.90;1.58;;;21.60;31.90;;;;;;6319608;27;19923;-44
2022/03/23 03:56:42;;;;;;;1.77;1.38;;;21.50;31.80;;;;;;6320136;27;20041;-44
2022/03/23 03:59:43;;;;;;;1.67;1.45;;;21.70;31.90;;;;;;6322665;27;20860;-43
2022/03/23 04:02:45;;;;;;;;;;;21.60;31.90;;;;;;6317133;27;20139;-43
2022/03/23 04:05:47;;;;;;;1.50;1.23;;;21.60;31.90;;;;;;6314364;27;19948;-45
2022/03/23 04:08:48;;;;;;;1.50;1.20;;;21.60;31.90;;;;;;6315939;27;20047;-43
2022/03/23 04:11:50;;;;;;;1.55;1.45;;;21.60;31.90;;;;;;6318834;27;20123;-43
2022/03/23 04:14:52;;;;;;;1.65;1.50;;;21.60;31.90;;;;;;6320319;27;20140;-43
2022/03/23 04:17:54;;;;;;;1.40;1.30;;;21.60;31.90;;;;;;6314190;27;20044;-43
2022/03/23 04:20:56;;;;;;;1.52;1.42;;;21.50;31.90;;;;;;6298082;27;20070;-45
2022/03/23 04:23:57;;;;;;;1.38;1.20;;;21.60;32.00;;;;;;6321829;27;20079;-48
2022/03/23 04:27:00;;;;;;;2.17;1.40;;;21.50;32.10;;;;;;6318497;27;20122;-43
2022/03/23 04:30:01;;;;;;;1.60;1.50;;;21.60;32.30;;;;;;6318509;27;20142;-43
2022/03/23 04:33:03;;;;;;;1.50;1.40;;;21.50;32.30;;;;;;6324069;27;22026;-43
2022/03/23 04:36:06;;;;;;;1.45;1.35;;;21.60;32.40;;;;;;6320016;27;20131;-46
2022/03/23 04:39:07;;;;;;;2.88;1.58;;;21.60;32.40;;;;;;6319251;27;20236;-44
2022/03/23 04:42:09;;;;;;;;;;;21.60;32.30;;;;;;6320201;27;20142;-44
2022/03/23 04:45:12;;;;;;;1.75;1.48;;;21.60;32.30;;;;;;6316007;27;19919;-43
2022/03/23 04:48:13;;;;;;;1.48;1.38;;;21.60;32.20;;;;;;6317849;27;20031;-44
2022/03/23 04:51:15;;;;;;;;;;;21.60;32.20;;;;;;6318570;27;20042;-44
2022/03/23 04:54:16;;;;;;;2.65;1.42;;;21.50;32.20;;;;;;6315680;27;19992;-43
2022/03/23 04:57:19;;;;;;;1.42;1.30;;;21.30;32.10;;;;;;6318743;27;20216;-44
2022/03/23 05:00:21;;;;;;;1.40;1.20;;;21.50;32.20;;;;;;6310461;27;20925;-46
2022/03/23 05:03:25;;;;;;;1.85;1.30;;;21.50;32.20;;;;;;6317173;27;20922;-47
2022/03/23 05:06:26;;;;;;;1.60;1.10;;;21.50;32.20;;;;;;6319432;27;20142;-44
2022/03/23 05:09:28;;;;;;;;;;;21.50;32.20;;;;;;6319121;27;20248;-43
2022/03/23 05:12:30;;;;;;;1.77;1.45;;;21.50;32.10;;;;;;6321196;27;20041;-44
2022/03/23 05:15:31;;;;;;;1.13;1.02;;;21.50;32.20;;;;;;6317368;27;20096;-44
2022/03/23 05:18:33;;;;;;;1.70;1.38;;;21.50;32.10;;;;;;6311829;27;21030;-43
2022/03/23 05:21:35;;;;;;;1.45;1.30;;;21.50;32.20;;;;;;6315370;27;20145;-43
2022/03/23 05:24:36;;;;;;;;;;;21.40;32.00;;;;;;6315416;27;20091;-46
2022/03/23 05:27:40;;;;;;;1.10;1.00;;;21.40;32.00;;;;;;6314725;27;19966;-43
2022/03/23 05:30:41;;;;;;;1.23;1.13;;;21.40;32.00;;;;;;6296083;27;20142;-43
2022/03/23 05:33:42;;;;;;;;;;;21.40;31.90;;;;;;6313263;27;20035;-43
2022/03/23 05:36:44;;;;;;;1.10;1.00;;;21.40;31.90;;;;;;6314310;27;19954;-44
2022/03/23 05:39:46;;;;;;;1.30;1.15;;;21.40;31.90;;;;;;6297288;27;21089;-43
2022/03/23 05:42:49;;;;;;;1.08;0.98;;;21.40;32.50;;;;;;6293461;27;20183;-44
2022/03/23 05:45:55;;;;;;;1.08;0.90;;;21.20;31.70;;;;;;6318038;27;20072;-45
2022/03/23 05:48:57;;;;;;;1.17;1.08;;;21.40;31.70;;;;;;6316111;27;20383;-43
2022/03/23 05:51:58;;;;;;;1.40;1.20;;;21.40;31.80;;;;;;6311089;27;20068;-44
2022/03/23 05:55:01;;;;;;;1.20;1.02;;;21.40;31.70;;;;;;6309145;27;20038;-46
2022/03/23 05:58:03;;;;;;;1.30;1.20;;;21.30;31.60;;;;;;6289756;27;20062;-43
2022/03/23 06:01:05;;;;;;;1.13;1.00;;;21.40;31.70;;;;;;6309998;27;20039;-43
2022/03/23 06:04:08;;;;;;;1.20;1.10;;;21.30;31.50;;;;;;6302883;27;20112;-42
2022/03/23 06:07:09;;;;;;;1.27;1.17;;;21.40;31.50;;;;;;6299927;27;20437;-43
2022/03/23 06:10:11;;;;;;;;;;;21.30;31.40;;;;;;6308968;27;20043;-44
2022/03/23 06:13:13;;;;;;;0.90;0.80;;;21.30;31.40;;;;;;6306369;27;20811;-44
2022/03/23 06:16:15;;;;;;;1.50;1.40;;;21.20;31.40;;;;;;6306894;27;21017;-44
2022/03/23 06:19:17;;;;;;;1.08;0.90;;;21.30;31.40;;;;;;6305630;27;20961;-43
2022/03/23 06:22:19;;;;;;;0.85;0.80;;;21.30;31.30;;;;;;6304476;27;20595;-43
2022/03/23 06:25:21;;;;;;;1.15;1.05;;;21.30;31.20;;;;;;6304006;27;20042;-45
2022/03/23 06:28:23;;;;;;;1.25;1.15;;;21.30;31.20;;;;;;6309389;27;20148;-44
2022/03/23 06:31:26;;;;;;;1.20;1.00;;;21.30;31.10;;;;;;6304543;27;20051;-45
2022/03/23 06:34:27;;;;;;;0.90;0.88;;;21.30;31.10;;;;;;6305046;27;20044;-42
2022/03/23 06:37:32;;;;;;;1.30;1.10;;;21.20;31.50;;;;;;6309072;27;20073;-43
2022/03/23 06:40:34;;;;;;;1.08;0.98;;;21.20;31.00;;;;;;6276010;27;20056;-43
2022/03/23 06:43:36;;;;;;;0.85;0.85;;;21.40;31.00;;;;;;6301418;27;20034;-45
2022/03/23 06:46:38;;;;;;;0.90;0.70;;;21.40;30.90;;;;;;6311158;27;20883;-45
2022/03/23 06:49:39;;;;;;;1.25;1.02;;;21.50;30.80;;;;;;6314016;27;20032;-43
2022/03/23 06:52:41;;;;;;;;;;;21.40;30.70;;;;;;6305586;27;20039;-45
2022/03/23 06:55:42;;;;;;;0.82;0.80;;;21.40;30.60;;;;;;6299397;27;20920;-43
2022/03/23 06:58:45;;;;;;;1.13;1.00;;;21.50;30.60;;;;;;6299615;27;20062;-43
2022/03/23 07:01:46;;;;;;;1.13;1.02;;;21.50;30.50;;;;;;6304809;27;20159;-43
2022/03/23 07:04:48;;;;;;;0.80;0.77;;;21.60;30.50;;;;;;6304946;27;20108;-43
2022/03/23 07:11:02;;;;;;;1.00;0.90;;;21.60;30.30;;;;;;6298746;27;20851;-46
2022/03/23 07:14:04;;;;;;;1.10;1.00;;;21.60;30.30;;;;;;6285356;27;20604;-49
2022/03/23 07:17:07;;;;;;;0.73;0.57;;;21.70;30.10;;;;;;6280258;27;20035;-49
2022/03/23 07:20:09;;;;;;;0.82;0.82;;;21.80;30.10;;;;;;6257319;27;20055;-47
2022/03/23 07:23:11;;;;;;;1.10;0.80;;;21.60;30.00;;;;;;6256596;27;20404;-45
2022/03/23 07:26:15;;;;;;;1.10;0.93;;;21.70;30.00;;;;;;6251656;27;20884;-45
2022/03/23 07:29:17;;;;;;;1.13;0.93;;;21.80;30.00;;;;;;6237950;27;20589;-45
2022/03/23 07:32:19;;;;;;;1.10;1.00;;;21.80;30.00;;;;;;6258594;27;20390;-45
2022/03/23 07:35:21;;;;;;;0.80;0.80;;;21.80;30.00;;;;;;6224737;27;20912;-45
2022/03/23 07:38:23;;;;;;;1.27;1.08;;;21.90;30.10;;;;;;6236691;27;20548;-44
2022/03/23 07:41:25;;;;;;;1.02;0.80;;;21.90;30.00;;;;;;6242478;27;20078;-45
2022/03/23 07:44:29;;;;;;;1.10;0.90;;;21.90;30.00;;;;;;6242242;27;20154;-43
2022/03/23 07:47:30;;;;;;;1.20;0.90;;;22.00;30.00;;;;;;6221346;27;20051;-45
2022/03/23 07:50:32;;;;;;;1.40;1.00;;;22.00;30.00;;;;;;6206405;27;35710;-45
2022/03/23 07:53:33;;;;;;;1.20;1.10;;;22.20;30.30;;;;;;6234660;27;27626;-47
2022/03/23 07:56:35;;;;;;;1.23;0.73;;;22.00;30.10;;;;;;6189783;27;20046;-44
2022/03/23 07:59:38;;;;;;;1.20;1.10;;;22.10;30.20;;;;;;6135358;27;20084;-45
2022/03/23 08:02:41;;;;;;;1.10;0.95;;;22.10;30.20;;;;;;6135337;27;20127;-45
2022/03/23 08:05:43;;;;;;;1.00;0.90;;;22.10;30.10;;;;;;6154771;27;25797;-44
2022/03/23 08:08:44;;;;;;;1.00;0.80;;;22.20;30.00;;;;;;6104789;27;20043;-45
2022/03/23 08:11:46;;;;;;;1.10;0.90;;;22.20;30.00;;;;;;6134593;27;20153;-45
2022/03/23 08:14:48;;;;;;;0.95;0.70;;;22.20;30.10;;;;;;6164146;27;20039;-48
2022/03/23 08:17:53;;;;;;;6.05;0.80;;;22.20;30.00;;;;;;6117368;27;22017;-44
2022/03/23 08:20:55;;;;;;;1.88;0.90;;;22.30;30.00;;;;;;6129990;27;23471;-45
2022/03/23 08:23:57;;;;;;;2.30;1.00;;;22.30;30.00;;;;;;6132062;27;44232;-43
2022/03/23 08:26:59;;;;;;;;;;;22.30;30.00;;;;;;6110794;27;20043;-44
2022/03/23 08:30:01;;;;;;;1.00;0.90;;;22.40;30.00;;;;;;6116126;27;19926;-45
2022/03/23 08:33:04;;;;;;;1.23;0.70;;;22.40;30.10;;;;;;6104374;27;20043;-45
2022/03/23 08:36:09;;;;;;;1.30;0.82;;;22.40;30.10;;;;;;6094720;27;20039;-48
2022/03/23 08:39:11;;;;;;;2.20;0.85;;;22.40;30.10;;;;;;6103778;27;20043;-41
2022/03/23 08:42:12;;;;;;;3.08;1.00;;;22.50;30.20;;;;;;6125866;27;20337;-42
2022/03/23 08:45:16;;;;;;;1.65;0.77;;;22.50;30.10;;;;;;6089150;27;20174;-42
2022/03/23 08:48:18;;;;;;;0.95;0.70;;;22.50;30.00;;;;;;6116436;27;20113;-42
2022/03/23 08:51:20;;;;;;;0.98;0.80;;;22.60;29.90;;;;;;6100018;27;20046;-42
2022/03/23 08:54:22;;;;;;;1.55;0.60;;;22.60;29.80;;;;;;6083803;27;20092;-42
2022/03/23 08:57:24;;;;;;;0.85;0.80;;;22.70;29.70;;;;;;6120774;27;29983;-41
2022/03/23 09:00:27;;;;;;;2.35;0.80;;;22.60;29.50;;;;;;6086331;27;20051;-42
2022/03/23 09:03:28;;;;;;;0.90;0.70;;;22.70;29.50;;;;;;6108906;27;20036;-42
2022/03/23 09:06:31;;;;;;;1.42;0.90;;;22.50;29.30;;;;;;6105373;27;20047;-41
2022/03/23 09:09:32;;;;;;;1.00;0.85;;;22.70;29.30;;;;;;6100067;27;20161;-43
2022/03/23 09:12:34;;;;;;;;;;;22.80;29.30;;;;;;6122056;27;20042;-41
2022/03/23 09:15:36;;;;;;;0.75;0.63;;;22.80;29.20;;;;;;6106002;27;19985;-41
2022/03/23 09:18:38;;;;;;;0.82;0.80;;;22.80;29.20;;;;;;6142409;27;20166;-41
2022/03/23 09:21:40;;;;;;;0.93;0.82;;;22.80;29.10;;;;;;6156451;27;20055;-42
2022/03/23 09:24:41;;;;;;;2.15;1.00;;;22.90;29.00;;;;;;6122889;27;20051;-43
2022/03/23 09:27:44;;;;;;;2.22;0.77;;;22.90;28.90;;;;;;6094166;27;20143;-42
2022/03/23 09:30:46;;;;;;;0.80;0.68;;;22.90;28.80;;;;;;6072488;27;21250;-41
2022/03/23 09:33:49;;;;;;;2.00;0.90;;;22.90;28.70;;;;;;6119430;27;20038;-41
2022/03/23 09:40:04;;;;;;;0.70;0.60;;;23.20;29.00;;;;;;6118994;27;20039;-41
2022/03/23 09:43:08;;;;;;;0.65;0.60;;;22.90;28.40;;;;;;6077601;27;20051;-41
2022/03/23 09:46:11;;;;;;;1.02;0.82;;;23.00;28.40;;;;;;6091128;27;20047;-41
2022/03/23 09:49:14;;;;;;;1.27;0.90;;;23.10;28.40;;;;;;6109401;27;21998;-41
2022/03/23 09:52:15;;;;;;;1.40;0.80;;;23.10;28.30;;;;;;6127014;27;36334;-41
2022/03/23 09:55:17;;;;;;;2.33;0.80;;;23.10;28.20;;;;;;6098274;27;20043;-51
2022/03/23 09:58:18;;;;;;;0.55;0.50;;;23.10;28.10;;;;;;6103406;27;24394;-41
2022/03/23 10:02:01;;;;;;;1.08;0.85;;;23.20;28.00;;;;;;6107173;27;20165;-42
2022/03/23 10:05:33;;;;;;;0.80;0.70;;;23.20;27.80;;;;;;6089505;27;20039;-42
2022/03/23 10:09:00;;;;;;;1.10;0.80;;;23.20;27.60;;;;;;6083155;27;20035;-41
2022/03/23 10:12:27;;;;;;;0.90;0.70;;;23.20;28.20;;;;;;6117786;27;20050;-41
2022/03/23 10:15:57;;;;;;;0.88;0.80;;;23.30;27.70;;;;;;6123143;27;20039;-41
2022/03/23 10:18:59;;;;;;;0.93;0.68;;;23.30;27.70;;;;;;6123000;27;20035;-41
2022/03/23 10:22:08;;;;;;;1.98;0.90;;;23.30;27.60;;;;;;6125265;27;20177;-42
2022/03/23 10:25:10;;;;;;;0.95;0.85;;;23.40;27.50;;;;;;6127805;27;20145;-41
2022/03/23 10:28:12;;;;;;;1.35;1.00;;;23.40;27.40;;;;;;6151936;27;21949;-41
2022/03/23 10:31:16;;;;;;;1.52;0.90;;;23.40;27.40;;;;;;6108547;27;20043;-41
2022/03/23 10:34:18;;;;;;;4.85;1.00;;;23.30;27.30;;;;;;6129993;27;21187;-41
2022/03/23 10:37:24;;;;;;;1.88;1.00;;;23.30;27.30;;;;;;6095575;27;20395;-42
2022/03/23 10:40:26;;;;;;;2.25;0.90;;;23.40;27.40;;;;;;6125195;27;20393;-41
2022/03/23 10:43:36;;;;;;;1.65;1.30;;;23.40;27.40;;;;;;6110048;27;20047;-41
2022/03/23 10:46:41;;;;;;;2.53;1.20;;;23.40;27.40;;;;;;6089522;27;20047;-42
2022/03/23 10:49:44;;;;;;;1.20;1.00;;;23.50;27.40;;;;;;6127915;27;20123;-41
2022/03/23 10:52:51;;;;;;;1.02;0.93;;;23.50;27.40;;;;;;6084144;27;20051;-41
2022/03/23 10:55:53;;;;;;;0.95;0.80;;;23.50;27.40;;;;;;6106662;27;20189;-41
2022/03/23 10:59:21;;;;;;;1.33;1.10;;;23.40;27.40;;;;;;6112830;27;21341;-40
2022/03/23 11:02:23;;;;;;;2.05;0.90;;;23.50;27.40;;;;;;6111210;27;21259;-42
2022/03/23 11:05:34;;;;;;;1.65;1.00;;;23.50;27.50;;;;;;6112818;27;20047;-42
2022/03/23 11:08:36;;;;;;;6.78;1.00;;;23.50;27.50;;;;;;6107093;27;20058;-43
2022/03/23 11:18:28;;;;;;;0.98;0.88;;;23.50;27.40;;;;;;6124328;27;20047;-43
2022/03/23 11:21:31;;;;;;;1.50;0.80;;;23.50;27.30;;;;;;6133128;27;21527;-43
2022/03/23 11:24:37;;;;;;;0.93;0.80;;;23.50;27.30;;;;;;6132423;27;20996;-44
2022/03/23 11:27:40;;;;;;;0.80;0.73;;;23.60;27.30;;;;;;6135114;27;20047;-43
2022/03/23 11:30:42;;;;;;;0.65;0.55;;;23.60;27.30;;;;;;6178446;27;20048;-44
2022/03/23 11:33:49;;;;;;;0.80;0.60;;;23.40;27.00;;;;;;6155498;27;20132;-45
2022/03/23 11:36:54;;;;;;;1.10;0.70;;;23.50;27.00;;;;;;6143059;27;20035;-46
2022/03/23 11:39:56;;;;;;;0.70;0.70;;;23.50;27.00;;;;;;6180868;27;20087;-43
2022/03/23 11:42:58;;;;;;;1.02;0.85;;;23.50;27.00;;;;;;6205540;27;20112;-44
2022/03/23 11:46:01;;;;;;;0.88;0.70;;;23.50;27.00;;;;;;6204325;27;21553;-44
2022/03/23 11:49:14;;;;;;;0.85;0.70;;;23.50;26.90;;;;;;6185706;27;20057;-44
2022/03/23 11:52:30;;;;;;;0.85;0.73;;;23.60;26.90;;;;;;6199856;27;21030;-44
2022/03/23 11:55:39;;;;;;;1.25;0.80;;;23.60;26.90;;;;;;6214701;27;20047;-44
2022/03/23 11:58:41;;;;;;;0.80;0.70;;;23.60;26.90;;;;;;6218883;27;20039;-47
2022/03/23 12:01:42;;;;;;;0.85;0.70;;;23.60;26.90;;;;;;6206422;27;20228;-44
2022/03/23 12:04:44;;;;;;;0.90;0.70;;;23.60;26.90;;;;;;6211771;27;20031;-43
2022/03/23 12:07:47;;;;;;;0.75;0.63;;;23.50;26.90;;;;;;6207669;27;20047;-44
2022/03/23 12:10:48;;;;;;;0.70;0.70;;;23.50;27.00;;;;;;6206716;27;20173;-45
2022/03/23 12:13:58;;;;;;;0.75;0.68;;;23.60;27.00;;;;;;6228645;27;20042;-43
2022/03/23 12:17:01;;;;;;;1.73;1.00;;;23.60;27.00;;;;;;6220004;27;20617;-43
2022/03/23 12:20:17;;;;;;;1.70;1.20;;;23.60;27.10;;;;;;6223726;27;20073;-41
2022/03/23 12:23:36;;;;;;;2.15;1.13;;;23.50;27.20;;;;;;6221375;27;21542;-47
2022/03/23 12:26:43;;;;;;;1.83;1.05;;;23.60;27.30;;;;;;6233507;27;23149;-42
2022/03/23 12:29:48;;;;;;;1.33;0.90;;;23.50;27.30;;;;;;6212191;27;21577;-42
2022/03/23 12:32:50;;;;;;;1.75;1.20;;;23.50;27.90;;;;;;6197848;27;20077;-45
2022/03/23 12:35:51;;;;;;;1.88;1.15;;;23.60;27.40;;;;;;6198915;27;21826;-42
2022/03/23 12:38:59;;;;;;;2.35;1.20;;;23.60;27.40;;;;;;6194781;27;20039;-44
2022/03/23 12:42:15;;;;;;;1.85;1.08;;;23.60;27.50;;;;;;6191028;27;20039;-41
2022/03/23 12:45:21;;;;;;;1.58;1.30;;;23.60;27.40;;;;;;6128720;27;20087;-42
2022/03/23 12:58:31;;;;;;;3.33;1.70;;;23.60;27.50;;;;;;6050617;27;23546;-44
2022/03/23 13:01:32;;;;;;;1.40;1.25;;;23.60;27.50;;;;;;6080593;27;20103;-44
2022/03/23 13:04:50;;;;;;;1.95;1.67;;;23.60;27.50;;;;;;6083917;27;20153;-45
2022/03/23 13:07:51;;;;;;;1.70;1.60;;;23.60;27.50;;;;;;6077114;27;20062;-45
2022/03/23 13:10:58;;;;;;;1.80;1.65;;;23.70;27.50;;;;;;6062741;27;20059;-44
2022/03/23 13:14:00;;;;;;;1.80;1.70;;;23.70;27.40;;;;;;6083134;27;21019;-43
2022/03/23 13:17:04;;;;;;;2.47;1.50;;;23.60;27.40;;;;;;6093753;27;20046;-45
2022/03/23 13:20:08;;;;;;;1.98;1.48;;;23.80;27.50;;;;;;6069577;27;20035;-44
2022/03/23 13:23:13;;;;;;;2.55;1.65;;;23.80;27.40;;;;;;6061720;27;20039;-43
2022/03/23 13:26:17;;;;;;;2.20;1.42;;;23.80;27.30;;;;;;6102669;27;21274;-44
2022/03/23 13:29:25;;;;;;;2.45;1.38;;;23.80;27.20;;;;;;6054367;27;20136;-42
2022/03/23 13:32:31;;;;;;;2.55;1.70;;;23.90;27.20;;;;;;6053013;27;20944;-42
2022/03/23 13:35:42;;;;;;;1.40;1.30;;;23.80;27.10;;;;;;6055610;27;20038;-42
2022/03/23 13:38:47;;;;;;;3.38;2.03;;;23.80;27.10;;;;;;6081102;27;21104;-42
2022/03/23 13:45:03;;;;;;;2.33;1.52;;;23.80;27.10;;;;;;6104378;27;20177;-43
2022/03/23 13:48:07;;;;;;;2.22;1.52;;;23.80;27.00;;;;;;6091125;27;20071;-42
2022/03/23 13:51:09;;;;;;;1.80;1.30;;;23.90;26.90;;;;;;6067806;27;20032;-43
2022/03/23 13:54:13;;;;;;;1.40;1.20;;;23.90;26.90;;;;;;6074779;27;20043;-42
2022/03/23 13:57:15;;;;;;;4.95;1.90;;;23.90;27.10;;;;;;6068503;27;22318;-42
2022/03/23 14:00:23;;;;;;;1.58;1.48;;;23.90;26.90;;;;;;6086938;27;20042;-43
2022/03/23 14:03:30;;;;;;;2.17;1.95;;;23.90;26.90;;;;;;6074231;27;21249;-43
2022/03/23 14:06:41;;;;;;;2.30;1.98;;;24.00;26.90;;;;;;6063491;27;20050;-42
2022/03/23 14:09:43;;;;;;;2.15;1.85;;;24.00;26.80;;;;;;6102964;27;20067;-43
2022/03/23 14:12:50;;;;;;;2.10;1.90;;;24.00;26.90;;;;;;6085373;27;20051;-42
2022/03/23 14:16:11;;;;;;;1.58;1.30;;;23.90;26.70;;;;;;6099347;27;21629;-41
2022/03/23 14:19:14;;;;;;;1.98;1.50;;;24.00;26.70;;;;;;6088952;27;20050;-43
2022/03/23 14:22:18;;;;;;;1.50;1.40;;;24.00;26.70;;;;;;6094560;27;20047;-43
2022/03/23 14:25:20;;;;;;;2.28;1.27;;;24.00;26.50;;;;;;6106789;27;20139;-41
2022/03/23 14:28:25;;;;;;;1.50;1.15;;;24.00;26.40;;;;;;6105415;27;20831;-42
2022/03/23 14:31:28;;;;;;;1.40;1.30;;;24.10;26.30;;;;;;6095593;27;20050;-43
2022/03/23 14:34:31;;;;;;;1.50;1.40;;;24.00;26.10;;;;;;6119692;27;20053;-41
2022/03/23 14:37:40;;;;;;;1.38;1.27;;;24.00;25.90;;;;;;6072745;27;20474;-42
2022/03/23 14:40:50;;;;;;;2.50;1.25;;;24.00;25.80;;;;;;6070343;27;20567;-42
2022/03/23 14:43:55;;;;;;;2.03;1.42;;;24.00;25.70;;;;;;6094124;27;20047;-42
2022/03/23 14:46:59;;;;;;;1.15;1.05;;;24.00;25.60;;;;;;6062750;27;21565;-42
2022/03/23 14:50:16;;;;;;;1.40;1.27;;;24.00;25.50;;;;;;6093026;27;20049;-42
2022/03/23 14:53:20;;;;;;;1.40;1.30;;;24.00;25.40;;;;;;6121657;27;20078;-43
2022/03/23 14:56:22;;;;;;;1.70;1.38;;;23.90;25.20;;;;;;6113764;27;26371;-45
2022/03/23 14:59:26;;;;;;;2.10;1.80;;;23.90;25.30;;;;;;6063258;27;20039;-43
2022/03/23 15:02:31;;;;;;;1.40;1.30;;;23.90;25.20;;;;;;6092158;27;21976;-43
2022/03/23 15:15:25;;;;;;;1.73;1.40;;;23.90;25.00;;;;;;6083161;27;21091;-45
2022/03/23 15:18:30;;;;;;;1.50;1.38;;;23.90;25.00;;;;;;6085030;27;20994;-44
2022/03/23 15:21:32;;;;;;;1.50;1.40;;;23.90;24.90;;;;;;6109461;27;20134;-43
2022/03/23 15:24:38;;;;;;;1.27;1.17;;;24.00;25.00;;;;;;6087792;27;21264;-44
2022/03/23 15:27:41;;;;;;;2.22;1.40;;;24.00;24.90;;;;;;6123375;27;20059;-44
2022/03/23 15:30:43;;;;;;;1.73;1.63;;;23.90;24.80;;;;;;6092916;27;20555;-45
2022/03/23 15:33:46;;;;;;;1.50;1.40;;;23.90;24.70;;;;;;6118242;27;20058;-44
2022/03/23 15:36:48;;;;;;;2.00;1.80;;;24.00;24.90;;;;;;6114360;27;20196;-45
2022/03/23 15:39:51;;;;;;;1.70;1.33;;;23.90;24.80;;;;;;6106375;27;20396;-45
2022/03/23 15:46:10;;;;;;;1.50;1.40;;;24.00;24.80;;;;;;6094082;27;20173;-45
2022/03/23 15:49:15;;;;;;;1.67;1.45;;;24.00;24.80;;;;;;6114692;27;20043;-43
2022/03/23 15:52:17;;;;;;;1.60;1.50;;;24.00;24.90;;;;;;6118177;27;20050;-47
2022/03/23 15:55:18;;;;;;;1.45;1.10;;;24.00;24.90;;;;;;6103127;27;20046;-48
2022/03/23 15:58:20;;;;;;;1.60;1.30;;;24.00;24.90;;;;;;6121844;27;30010;-46
2022/03/23 16:01:22;;;;;;;2.05;1.70;;;24.00;24.80;;;;;;6118446;27;20145;-47
2022/03/23 16:04:25;;;;;;;1.50;1.40;;;24.10;24.90;;;;;;6122325;27;20047;-45
2022/03/23 16:07:26;;;;;;;2.00;1.45;;;24.00;24.90;;;;;;6130462;27;20065;-46
2022/03/23 16:10:28;;;;;;;1.58;1.48;;;24.00;24.80;;;;;;6093690;27;20124;-47
2022/03/23 16:13:30;;;;;;;1.60;1.40;;;24.00;24.90;;;;;;6108518;27;22586;-46
2022/03/23 16:16:33;;;;;;;1.40;1.30;;;24.00;24.80;;;;;;6112217;27;21326;-47
2022/03/23 16:19:35;;;;;;;1.85;1.33;;;24.00;24.80;;;;;;6142803;27;20040;-47
2022/03/23 16:22:37;;;;;;;2.00;1.40;;;24.00;24.80;;;;;;6130029;27;20265;-46
2022/03/23 16:25:39;;;;;;;1.50;1.40;;;24.00;24.80;;;;;;6123194;27;20043;-46
2022/03/23 16:28:40;;;;;;;2.08;1.70;;;24.00;24.90;;;;;;6142875;27;20054;-46
2022/03/23 16:31:44;;;;;;;1.52;1.42;;;24.00;24.80;;;;;;6166955;27;20042;-45
2022/03/23 16:34:47;;;;;;;1.50;1.40;;;24.00;24.80;;;;;;6165851;27;21453;-43
2022/03/23 16:37:51;;;;;;;1.95;1.75;;;24.00;24.80;;;;;;6191541;27;20041;-47
2022/03/23 16:41:33;;;;;;;2.58;1.60;;;24.10;24.80;;;;;;6199815;27;20074;-47
2022/03/23 16:44:15;;;;;;;1.60;1.50;;;24.10;24.80;;;;;;6182499;27;20050;-46
2022/03/23 16:47:19;;;;;;;1.60;1.40;;;24.00;24.80;;;;;;6182357;27;20045;-44
2022/03/23 16:50:22;;;;;;;1.25;1.15;;;23.80;24.60;;;;;;6204445;27;20922;-43
2022/03/23 16:53:25;;;;;;;2.00;1.55;;;24.10;24.70;;;;;;6209269;27;20065;-43